Norwegian Wind — C6LG6 — position and weather

sailwx.info

Track history (hours):
 
Tides and Currents Weather Stations Pressure Air Temp Water Temp Dewpoint Dewpoint Depression Visibility Wind Speed Wind Dir Waves Ship Positions

Norwegian Wind

Operator: Norwegian Cruise Line

Last reported at 2019-Sep-15 09:22 UTC. Time now 2019-Sep-17 08:20 UTC.
Position N 25°15' E 121°47'.

Type: Passenger vessel. MMSI: 308273000.

Date/timePositionNaut miles runAvg speedWind from/ knotsBaromVisibWave heightAir tempDewpointWater temp
2019-Sep-15 09:22N 25°15' E 121°47'513.0
2019-Sep-15 09:00N 25°11' E 121°46'3 5.9
2019-Sep-15 08:30N 25°08' E 121°45'0 0.0
2019-Sep-15 08:01N 25°08' E 121°45'0 0.0
2019-Sep-15 07:31N 25°08' E 121°45'0 0.0
2019-Sep-15 07:01N 25°08' E 121°45'0 0.0
2019-Sep-15 06:31N 25°08' E 121°45'0 0.0
2019-Sep-15 06:01N 25°08' E 121°45'0 0.0
2019-Sep-15 05:31N 25°08' E 121°45'0 0.0
2019-Sep-15 05:00N 25°08' E 121°45'0 0.0
2019-Sep-15 04:30N 25°08' E 121°45'0 0.0
2019-Sep-15 04:01N 25°08' E 121°45'0 0.0
2019-Sep-15 03:30N 25°08' E 121°45'0 0.0
2019-Sep-15 03:01N 25°08' E 121°45'0 0.0
2019-Sep-15 02:30N 25°08' E 121°45'1 2.3
2019-Sep-15 02:00N 25°09' E 121°45'510.3
2019-Sep-15 01:31N 25°14' E 121°45'4 6.9
2019-Sep-15 00:57N 25°18' E 121°44'5 3.6
2019-Sep-14 23:36N 25°17' E 121°49'1 7.6
2019-Sep-14 23:30N 25°16' E 121°49'2 0.2
2019-Sep-14 17:07N 25°16' E 121°47'1 6.2
2019-Sep-14 16:58N 25°15' E 121°47'75 4.4
2019-Sep-14 00:00N 24°24' E 122°48'17 4.0 010 / 191005.010.8 29.026.3
2019-Sep-13 19:44N 24°39' E 122°40'310.6
2019-Sep-13 19:28N 24°41' E 122°37'510.5
2019-Sep-13 19:00N 24°44' E 122°33'610.5
2019-Sep-13 18:28N 24°48' E 122°29'610.4
2019-Sep-13 17:55N 24°52' E 122°24'511.0
2019-Sep-13 17:29N 24°55' E 122°20'1211.3
2019-Sep-13 16:23N 25°04' E 122°11'411.0
2019-Sep-13 15:59N 25°07' E 122°07'611.1
2019-Sep-13 15:26N 25°11' E 122°02'410.6
2019-Sep-13 15:00N 25°13' E 121°58'510.4
2019-Sep-13 14:30N 25°13' E 121°52'613.0
2019-Sep-13 14:01N 25°10' E 121°45'2 4.8
2019-Sep-13 13:31N 25°08' E 121°45'0 0.0
2019-Sep-13 13:01N 25°08' E 121°45'0 0.0
2019-Sep-13 12:31N 25°08' E 121°45'0 0.0
2019-Sep-13 12:01N 25°08' E 121°45'0 0.0
2019-Sep-13 11:31N 25°08' E 121°45'0 0.0
2019-Sep-13 11:01N 25°08' E 121°45'0 0.0
2019-Sep-13 10:30N 25°08' E 121°45'0 0.0
2019-Sep-13 10:00N 25°08' E 121°45'0 0.0
2019-Sep-13 09:31N 25°08' E 121°45'0 0.0
2019-Sep-13 09:01N 25°08' E 121°45'0 0.0
2019-Sep-13 08:31N 25°08' E 121°45'0 0.0
2019-Sep-13 08:01N 25°08' E 121°45'0 0.2
2019-Sep-13 07:31N 25°08' E 121°45'2 3.7
2019-Sep-13 07:01N 25°10' E 121°45'713.0
2019-Sep-13 06:28N 25°17' E 121°46'510.1
2019-Sep-13 06:00N 25°21' E 121°46'5 9.6
2019-Sep-13 05:30N 25°20' E 121°51'3 5.4
2019-Sep-13 05:00N 25°20' E 121°48'2 3.2
2019-Sep-13 04:29N 25°20' E 121°50'0 0.0
2019-Sep-13 03:59N 25°20' E 121°50'0 0.5
2019-Sep-13 03:30N 25°19' E 121°50'1 1.1
2019-Sep-13 02:58N 25°19' E 121°51'1 1.4
2019-Sep-13 02:30N 25°19' E 121°51'2 2.0
2019-Sep-13 01:27N 25°18' E 121°53'1 2.3
2019-Sep-13 00:57N 25°18' E 121°55'1 2.6
2019-Sep-13 00:27N 25°18' E 121°56'1 2.3
2019-Sep-13 00:00N 25°18' E 121°57'1 2.7
2019-Sep-12 23:30N 25°18' E 121°59'4 8.7
2019-Sep-12 23:00N 25°14' E 122°01'611.4
2019-Sep-12 22:30N 25°11' E 122°06'610.9
2019-Sep-12 21:57N 25°08' E 122°12'6 0.2
2019-Sep-11 16:10N 25°03' E 122°17'715.1
2019-Sep-11 15:43N 25°07' E 122°10'315.9
2019-Sep-11 15:30N 25°08' E 122°07'815.2
2019-Sep-11 14:59N 25°12' E 121°59'714.8
2019-Sep-11 14:30N 25°12' E 121°52'611.5
2019-Sep-11 14:00N 25°11' E 121°45'3 5.2
2019-Sep-11 13:30N 25°08' E 121°45'0 0.0
2019-Sep-11 12:56N 25°08' E 121°45'0 0.0
2019-Sep-11 12:30N 25°08' E 121°45'0 0.0
2019-Sep-11 12:00N 25°08' E 121°45'0 0.0
2019-Sep-11 11:30N 25°08' E 121°45'0 0.0
2019-Sep-11 11:00N 25°08' E 121°45'0 0.0
2019-Sep-11 10:30N 25°08' E 121°45'0 0.0
2019-Sep-11 10:00N 25°08' E 121°45'0 0.0
2019-Sep-11 09:30N 25°08' E 121°45'0 0.0
2019-Sep-11 09:00N 25°08' E 121°45'0 0.0
2019-Sep-11 08:30N 25°08' E 121°45'0 0.0
2019-Sep-11 08:00N 25°08' E 121°45'0 0.0
2019-Sep-11 07:30N 25°08' E 121°45'1 2.2
2019-Sep-11 07:00N 25°09' E 121°45'611.8
2019-Sep-11 06:30N 25°15' E 121°44'5 9.0
2019-Sep-11 06:00N 25°18' E 121°48'1140.7 100 / 101010.710.8 33.029.128.1
2019-Sep-11 05:59N 25°18' E 121°49'713.3
2019-Sep-11 05:29N 25°16' E 121°56'511.3
2019-Sep-11 05:00N 25°16' E 122°02'714.0
2019-Sep-11 04:29N 25°18' E 122°10'814.3
2019-Sep-11 03:57N 25°18' E 122°18'714.6
2019-Sep-11 03:28N 25°19' E 122°26'267 8.7
2019-Sep-09 21:00N 26°00' E 127°18'202 9.6 130 / 161008.710.8 27.024.328.1
2019-Sep-09 00:00N 24°18' E 124°06'106 8.5 090 / 101005.710.8 31.028.428.1
2019-Sep-08 11:33N 25°03' E 122°21'1113.0
2019-Sep-08 10:42N 25°07' E 122°09'314.6
2019-Sep-08 10:30N 25°08' E 122°06'915.3
2019-Sep-08 09:57N 25°11' E 121°57'614.6
2019-Sep-08 09:30N 25°13' E 121°50'611.6
2019-Sep-08 09:00N 25°10' E 121°45'1 2.9
2019-Sep-08 08:30N 25°08' E 121°45'0 0.0
2019-Sep-08 07:59N 25°08' E 121°45'0 0.0
2019-Sep-08 07:29N 25°08' E 121°45'0 0.0
2019-Sep-08 06:58N 25°08' E 121°45'0 0.0
2019-Sep-08 06:28N 25°08' E 121°45'0 0.0
2019-Sep-08 05:58N 25°08' E 121°45'0 0.0
2019-Sep-08 05:28N 25°08' E 121°45'0 0.0
2019-Sep-08 04:58N 25°08' E 121°45'0 0.0
2019-Sep-08 04:28N 25°08' E 121°45'0 0.0
2019-Sep-08 03:58N 25°08' E 121°45'0 0.0
2019-Sep-08 03:28N 25°08' E 121°45'0 0.0
2019-Sep-08 02:58N 25°08' E 121°45'0 0.0
2019-Sep-08 02:28N 25°08' E 121°45'0 0.6
2019-Sep-08 02:00N 25°08' E 121°45'5 9.9
2019-Sep-08 01:31N 25°13' E 121°44'610.3
2019-Sep-08 00:55N 25°16' E 121°50'613.3
2019-Sep-08 00:30N 25°16' E 121°57'510.7
2019-Sep-08 00:00N 25°12' E 122°00'5201.1 280 / 101004.7 5.4 27.024.328.1
2019-Sep-07 23:58N 25°15' E 122°04'1 1.5
2019-Sep-07 23:26N 25°15' E 122°05'1 1.9
2019-Sep-07 22:58N 25°16' E 122°04'1 1.3
2019-Sep-07 22:27N 25°16' E 122°04'0 0.7
2019-Sep-07 22:00N 25°16' E 122°03'0 0.5
2019-Sep-07 21:28N 25°16' E 122°03'5 9.8
2019-Sep-07 21:00N 25°12' E 122°00'4140.7 280 / 101002.710.8 27.024.328.1
2019-Sep-07 20:58N 25°16' E 122°03'0 0.1
2019-Sep-07 20:29N 25°16' E 122°03'0 0.0
2019-Sep-07 19:58N 25°16' E 122°03'0 0.3
2019-Sep-07 19:28N 25°16' E 122°03'0 0.5
2019-Sep-07 18:56N 25°16' E 122°03'0 0.7
2019-Sep-07 18:29N 25°16' E 122°03'1 1.3
2019-Sep-07 17:56N 25°17' E 122°04'4 8.4
2019-Sep-07 17:29N 25°15' E 121°60'3 6.6
2019-Sep-07 16:57N 25°13' E 121°56'1 1.2
2019-Sep-07 16:27N 25°14' E 121°57'1 1.3
2019-Sep-07 15:59N 25°14' E 121°57'1 1.2
2019-Sep-07 15:28N 25°15' E 121°57'1 1.2
2019-Sep-07 14:58N 25°16' E 121°57'1 1.0
2019-Sep-07 14:28N 25°16' E 121°57'1 1.1
2019-Sep-07 14:00N 25°16' E 121°57'1 1.2
2019-Sep-07 13:29N 25°17' E 121°56'1 1.4
2019-Sep-07 12:59N 25°18' E 121°56'1 1.4
2019-Sep-07 12:29N 25°18' E 121°55'1 1.4
2019-Sep-07 11:59N 25°18' E 121°55'1 2.4
2019-Sep-07 11:29N 25°17' E 121°56'4 7.9
2019-Sep-07 11:00N 25°14' E 121°58'1 1.7
2019-Sep-07 10:30N 25°13' E 121°57'0 0.7
2019-Sep-07 09:59N 25°14' E 121°57'0 0.8
2019-Sep-07 09:30N 25°14' E 121°57'0 0.9
2019-Sep-07 08:57N 25°15' E 121°58'0 0.7
2019-Sep-07 08:26N 25°15' E 121°58'0 1.1
2019-Sep-07 07:59N 25°15' E 121°58'4 8.0
2019-Sep-07 07:28N 25°12' E 122°02'510.5
2019-Sep-07 06:57N 25°08' E 122°06'1910.8
2019-Sep-07 05:15N 24°54' E 122°20'410.1
2019-Sep-07 04:48N 24°51' E 122°23'310.2
2019-Sep-07 04:30N 24°49' E 122°26'5 9.8
2019-Sep-07 04:00N 24°46' E 122°30'5 9.9
2019-Sep-07 03:31N 24°43' E 122°34'10 1.5
2019-Sep-06 21:20N 24°38' E 122°43'410.1
2019-Sep-06 20:57N 24°41' E 122°39'810.4
2019-Sep-06 20:09N 24°44' E 122°31'2 9.2
2019-Sep-06 19:59N 24°45' E 122°30'5 9.5
2019-Sep-06 19:27N 24°48' E 122°26'5 9.7
2019-Sep-06 18:56N 24°52' E 122°22'5 9.4
2019-Sep-06 18:25N 24°55' E 122°18'5 9.9
2019-Sep-06 17:55N 24°58' E 122°13'1111.2
2019-Sep-06 16:58N 25°05' E 122°04'611.4
2019-Sep-06 16:28N 25°09' E 121°60'714.3
2019-Sep-06 15:59N 25°11' E 121°53'613.2
2019-Sep-06 15:31N 25°12' E 121°46'4 7.8
2019-Sep-06 15:00N 25°08' E 121°45'0 0.1
2019-Sep-06 14:30N 25°08' E 121°45'0 0.0
2019-Sep-06 14:00N 25°08' E 121°45'0 0.0
2019-Sep-06 13:30N 25°08' E 121°45'0 0.0
2019-Sep-06 13:00N 25°08' E 121°45'0 0.0
2019-Sep-06 12:28N 25°08' E 121°45'3 6.5
2019-Sep-06 12:00N 25°06' E 121°42'3139.8 150 / 6999.710.8 29.026.328.1
2019-Sep-06 11:58N 25°08' E 121°45'0 0.0
2019-Sep-06 11:28N 25°08' E 121°45'0 0.0
2019-Sep-06 11:01N 25°08' E 121°45'0 0.0
2019-Sep-06 10:30N 25°08' E 121°45'0 0.0
2019-Sep-06 10:00N 25°08' E 121°45'0 0.0
2019-Sep-06 09:30N 25°08' E 121°45'0 0.0
2019-Sep-06 09:00N 25°08' E 121°45'0 0.0
2019-Sep-06 08:30N 25°08' E 121°45'0 0.0
2019-Sep-06 08:00N 25°08' E 121°45'0 0.4
2019-Sep-06 07:30N 25°08' E 121°45'2 3.4
2019-Sep-06 07:00N 25°10' E 121°45'5 8.7
2019-Sep-06 06:28N 25°13' E 121°49'613.3
2019-Sep-06 06:00N 25°11' E 121°55'3012.3
2019-Sep-06 03:34N 24°53' E 122°21'5 8.4
2019-Sep-06 03:01N 24°50' E 122°25'0 8.3
2019-Sep-06 03:00N 24°50' E 122°25'5 8.4
2019-Sep-06 02:26N 24°47' E 122°29'4 8.3
2019-Sep-06 01:57N 24°44' E 122°33'7 8.8
2019-Sep-06 01:11N 24°40' E 122°38'10 8.6
2019-Sep-06 00:00N 24°30' E 122°42'37 3.6 270 / 19999.610.8 29.026.328.1
2019-Sep-05 13:45N 24°46' E 122°06'2 8.1
2019-Sep-05 13:28N 24°49' E 122°06'811.1
2019-Sep-05 12:46N 24°56' E 122°06'1011.4
2019-Sep-05 11:55N 25°06' E 122°03'511.1
2019-Sep-05 11:30N 25°10' E 122°00'510.8
2019-Sep-05 11:00N 25°13' E 121°55'611.6
2019-Sep-05 10:30N 25°15' E 121°50'611.5
2019-Sep-05 09:57N 25°18' E 121°44'611.0
2019-Sep-05 09:27N 25°21' E 121°38'  
Track history (hours):
 
Tides and Currents Weather Stations Pressure Air Temp Water Temp Dewpoint Dewpoint Depression Visibility Wind Speed Wind Dir Waves Ship Positions

Norwegian Wind

Operator: Norwegian Cruise Line

Last reported at 2019-Sep-15 09:22 UTC. Time now 2019-Sep-17 08:20 UTC.
Position N 25°15' E 121°47'.

Type: Passenger vessel. MMSI: 308273000.

Date/timePositionNaut miles runAvg speedWind from/ knotsBaromVisibWave heightAir tempDewpointWater temp
2019-Sep-15 09:22N 25°15' E 121°47'513.0
2019-Sep-15 09:00N 25°11' E 121°46'3 5.9
2019-Sep-15 08:30N 25°08' E 121°45'0 0.0
2019-Sep-15 08:01N 25°08' E 121°45'0 0.0
2019-Sep-15 07:31N 25°08' E 121°45'0 0.0
2019-Sep-15 07:01N 25°08' E 121°45'0 0.0
2019-Sep-15 06:31N 25°08' E 121°45'0 0.0
2019-Sep-15 06:01N 25°08' E 121°45'0 0.0
2019-Sep-15 05:31N 25°08' E 121°45'0 0.0
2019-Sep-15 05:00N 25°08' E 121°45'0 0.0
2019-Sep-15 04:30N 25°08' E 121°45'0 0.0
2019-Sep-15 04:01N 25°08' E 121°45'0 0.0
2019-Sep-15 03:30N 25°08' E 121°45'0 0.0
2019-Sep-15 03:01N 25°08' E 121°45'0 0.0
2019-Sep-15 02:30N 25°08' E 121°45'1 2.3
2019-Sep-15 02:00N 25°09' E 121°45'510.3
2019-Sep-15 01:31N 25°14' E 121°45'4 6.9
2019-Sep-15 00:57N 25°18' E 121°44'5 3.6
2019-Sep-14 23:36N 25°17' E 121°49'1 7.6
2019-Sep-14 23:30N 25°16' E 121°49'2 0.2
2019-Sep-14 17:07N 25°16' E 121°47'1 6.2
2019-Sep-14 16:58N 25°15' E 121°47'75 4.4
2019-Sep-14 00:00N 24°24' E 122°48'17 4.0 010 / 191005.010.8 29.026.3
2019-Sep-13 19:44N 24°39' E 122°40'310.6
2019-Sep-13 19:28N 24°41' E 122°37'510.5
2019-Sep-13 19:00N 24°44' E 122°33'610.5
2019-Sep-13 18:28N 24°48' E 122°29'610.4
2019-Sep-13 17:55N 24°52' E 122°24'511.0
2019-Sep-13 17:29N 24°55' E 122°20'1211.3
2019-Sep-13 16:23N 25°04' E 122°11'411.0
2019-Sep-13 15:59N 25°07' E 122°07'611.1
2019-Sep-13 15:26N 25°11' E 122°02'410.6
2019-Sep-13 15:00N 25°13' E 121°58'510.4
2019-Sep-13 14:30N 25°13' E 121°52'613.0
2019-Sep-13 14:01N 25°10' E 121°45'2 4.8
2019-Sep-13 13:31N 25°08' E 121°45'0 0.0
2019-Sep-13 13:01N 25°08' E 121°45'0 0.0
2019-Sep-13 12:31N 25°08' E 121°45'0 0.0
2019-Sep-13 12:01N 25°08' E 121°45'0 0.0
2019-Sep-13 11:31N 25°08' E 121°45'0 0.0
2019-Sep-13 11:01N 25°08' E 121°45'0 0.0
2019-Sep-13 10:30N 25°08' E 121°45'0 0.0
2019-Sep-13 10:00N 25°08' E 121°45'0 0.0
2019-Sep-13 09:31N 25°08' E 121°45'0 0.0
2019-Sep-13 09:01N 25°08' E 121°45'0 0.0
2019-Sep-13 08:31N 25°08' E 121°45'0 0.0
2019-Sep-13 08:01N 25°08' E 121°45'0 0.2
2019-Sep-13 07:31N 25°08' E 121°45'2 3.7
2019-Sep-13 07:01N 25°10' E 121°45'713.0
2019-Sep-13 06:28N 25°17' E 121°46'510.1
2019-Sep-13 06:00N 25°21' E 121°46'5 9.6
2019-Sep-13 05:30N 25°20' E 121°51'3 5.4
2019-Sep-13 05:00N 25°20' E 121°48'2 3.2
2019-Sep-13 04:29N 25°20' E 121°50'0 0.0
2019-Sep-13 03:59N 25°20' E 121°50'0 0.5
2019-Sep-13 03:30N 25°19' E 121°50'1 1.1
2019-Sep-13 02:58N 25°19' E 121°51'1 1.4
2019-Sep-13 02:30N 25°19' E 121°51'2 2.0
2019-Sep-13 01:27N 25°18' E 121°53'1 2.3
2019-Sep-13 00:57N 25°18' E 121°55'1 2.6
2019-Sep-13 00:27N 25°18' E 121°56'1 2.3
2019-Sep-13 00:00N 25°18' E 121°57'1 2.7
2019-Sep-12 23:30N 25°18' E 121°59'4 8.7
2019-Sep-12 23:00N 25°14' E 122°01'611.4
2019-Sep-12 22:30N 25°11' E 122°06'610.9
2019-Sep-12 21:57N 25°08' E 122°12'6 0.2
2019-Sep-11 16:10N 25°03' E 122°17'715.1
2019-Sep-11 15:43N 25°07' E 122°10'315.9
2019-Sep-11 15:30N 25°08' E 122°07'815.2
2019-Sep-11 14:59N 25°12' E 121°59'714.8
2019-Sep-11 14:30N 25°12' E 121°52'611.5
2019-Sep-11 14:00N 25°11' E 121°45'3 5.2
2019-Sep-11 13:30N 25°08' E 121°45'0 0.0
2019-Sep-11 12:56N 25°08' E 121°45'0 0.0
2019-Sep-11 12:30N 25°08' E 121°45'0 0.0
2019-Sep-11 12:00N 25°08' E 121°45'0 0.0
2019-Sep-11 11:30N 25°08' E 121°45'0 0.0
2019-Sep-11 11:00N 25°08' E 121°45'0 0.0
2019-Sep-11 10:30N 25°08' E 121°45'0 0.0
2019-Sep-11 10:00N 25°08' E 121°45'0 0.0
2019-Sep-11 09:30N 25°08' E 121°45'0 0.0
2019-Sep-11 09:00N 25°08' E 121°45'0 0.0
2019-Sep-11 08:30N 25°08' E 121°45'0 0.0
2019-Sep-11 08:00N 25°08' E 121°45'0 0.0
2019-Sep-11 07:30N 25°08' E 121°45'1 2.2
2019-Sep-11 07:00N 25°09' E 121°45'611.8
2019-Sep-11 06:30N 25°15' E 121°44'5 9.0
2019-Sep-11 06:00N 25°18' E 121°48'1140.7 100 / 101010.710.8 33.029.128.1
2019-Sep-11 05:59N 25°18' E 121°49'713.3
2019-Sep-11 05:29N 25°16' E 121°56'511.3
2019-Sep-11 05:00N 25°16' E 122°02'714.0
2019-Sep-11 04:29N 25°18' E 122°10'814.3
2019-Sep-11 03:57N 25°18' E 122°18'714.6
2019-Sep-11 03:28N 25°19' E 122°26'267 8.7
2019-Sep-09 21:00N 26°00' E 127°18'202 9.6 130 / 161008.710.8 27.024.328.1
2019-Sep-09 00:00N 24°18' E 124°06'106 8.5 090 / 101005.710.8 31.028.428.1
2019-Sep-08 11:33N 25°03' E 122°21'1113.0
2019-Sep-08 10:42N 25°07' E 122°09'314.6
2019-Sep-08 10:30N 25°08' E 122°06'915.3
2019-Sep-08 09:57N 25°11' E 121°57'614.6
2019-Sep-08 09:30N 25°13' E 121°50'611.6
2019-Sep-08 09:00N 25°10' E 121°45'1 2.9
2019-Sep-08 08:30N 25°08' E 121°45'0 0.0
2019-Sep-08 07:59N 25°08' E 121°45'0 0.0
2019-Sep-08 07:29N 25°08' E 121°45'0 0.0
2019-Sep-08 06:58N 25°08' E 121°45'0 0.0
2019-Sep-08 06:28N 25°08' E 121°45'0 0.0
2019-Sep-08 05:58N 25°08' E 121°45'0 0.0
2019-Sep-08 05:28N 25°08' E 121°45'0 0.0
2019-Sep-08 04:58N 25°08' E 121°45'0 0.0
2019-Sep-08 04:28N 25°08' E 121°45'0 0.0
2019-Sep-08 03:58N 25°08' E 121°45'0 0.0
2019-Sep-08 03:28N 25°08' E 121°45'0 0.0
2019-Sep-08 02:58N 25°08' E 121°45'0 0.0
2019-Sep-08 02:28N 25°08' E 121°45'0 0.6
2019-Sep-08 02:00N 25°08' E 121°45'5 9.9
2019-Sep-08 01:31N 25°13' E 121°44'610.3
2019-Sep-08 00:55N 25°16' E 121°50'613.3
2019-Sep-08 00:30N 25°16' E 121°57'510.7
2019-Sep-08 00:00N 25°12' E 122°00'5201.1 280 / 101004.7 5.4 27.024.328.1
2019-Sep-07 23:58N 25°15' E 122°04'1 1.5
2019-Sep-07 23:26N 25°15' E 122°05'1 1.9
2019-Sep-07 22:58N 25°16' E 122°04'1 1.3
2019-Sep-07 22:27N 25°16' E 122°04'0 0.7
2019-Sep-07 22:00N 25°16' E 122°03'0 0.5
2019-Sep-07 21:28N 25°16' E 122°03'5 9.8
2019-Sep-07 21:00N 25°12' E 122°00'4140.7 280 / 101002.710.8 27.024.328.1
2019-Sep-07 20:58N 25°16' E 122°03'0 0.1
2019-Sep-07 20:29N 25°16' E 122°03'0 0.0
2019-Sep-07 19:58N 25°16' E 122°03'0 0.3
2019-Sep-07 19:28N 25°16' E 122°03'0 0.5
2019-Sep-07 18:56N 25°16' E 122°03'0 0.7
2019-Sep-07 18:29N 25°16' E 122°03'1 1.3
2019-Sep-07 17:56N 25°17' E 122°04'4 8.4
2019-Sep-07 17:29N 25°15' E 121°60'3 6.6
2019-Sep-07 16:57N 25°13' E 121°56'1 1.2
2019-Sep-07 16:27N 25°14' E 121°57'1 1.3
2019-Sep-07 15:59N 25°14' E 121°57'1 1.2
2019-Sep-07 15:28N 25°15' E 121°57'1 1.2
2019-Sep-07 14:58N 25°16' E 121°57'1 1.0
2019-Sep-07 14:28N 25°16' E 121°57'1 1.1
2019-Sep-07 14:00N 25°16' E 121°57'1 1.2
2019-Sep-07 13:29N 25°17' E 121°56'1 1.4
2019-Sep-07 12:59N 25°18' E 121°56'1 1.4
2019-Sep-07 12:29N 25°18' E 121°55'1 1.4
2019-Sep-07 11:59N 25°18' E 121°55'1 2.4
2019-Sep-07 11:29N 25°17' E 121°56'4 7.9
2019-Sep-07 11:00N 25°14' E 121°58'1 1.7
2019-Sep-07 10:30N 25°13' E 121°57'0 0.7
2019-Sep-07 09:59N 25°14' E 121°57'0 0.8
2019-Sep-07 09:30N 25°14' E 121°57'0 0.9
2019-Sep-07 08:57N 25°15' E 121°58'0 0.7
2019-Sep-07 08:26N 25°15' E 121°58'0 1.1
2019-Sep-07 07:59N 25°15' E 121°58'4 8.0
2019-Sep-07 07:28N 25°12' E 122°02'510.5
2019-Sep-07 06:57N 25°08' E 122°06'1910.8
2019-Sep-07 05:15N 24°54' E 122°20'410.1
2019-Sep-07 04:48N 24°51' E 122°23'310.2
2019-Sep-07 04:30N 24°49' E 122°26'5 9.8
2019-Sep-07 04:00N 24°46' E 122°30'5 9.9
2019-Sep-07 03:31N 24°43' E 122°34'10 1.5
2019-Sep-06 21:20N 24°38' E 122°43'410.1
2019-Sep-06 20:57N 24°41' E 122°39'810.4
2019-Sep-06 20:09N 24°44' E 122°31'2 9.2
2019-Sep-06 19:59N 24°45' E 122°30'5 9.5
2019-Sep-06 19:27N 24°48' E 122°26'5 9.7
2019-Sep-06 18:56N 24°52' E 122°22'5 9.4
2019-Sep-06 18:25N 24°55' E 122°18'5 9.9
2019-Sep-06 17:55N 24°58' E 122°13'1111.2
2019-Sep-06 16:58N 25°05' E 122°04'611.4
2019-Sep-06 16:28N 25°09' E 121°60'714.3
2019-Sep-06 15:59N 25°11' E 121°53'613.2
2019-Sep-06 15:31N 25°12' E 121°46'4 7.8
2019-Sep-06 15:00N 25°08' E 121°45'0 0.1
2019-Sep-06 14:30N 25°08' E 121°45'0 0.0
2019-Sep-06 14:00N 25°08' E 121°45'0 0.0
2019-Sep-06 13:30N 25°08' E 121°45'0 0.0
2019-Sep-06 13:00N 25°08' E 121°45'0 0.0
2019-Sep-06 12:28N 25°08' E 121°45'3 6.5
2019-Sep-06 12:00N 25°06' E 121°42'3139.8 150 / 6999.710.8 29.026.328.1
2019-Sep-06 11:58N 25°08' E 121°45'0 0.0
2019-Sep-06 11:28N 25°08' E 121°45'0 0.0
2019-Sep-06 11:01N 25°08' E 121°45'0 0.0
2019-Sep-06 10:30N 25°08' E 121°45'0 0.0
2019-Sep-06 10:00N 25°08' E 121°45'0 0.0
2019-Sep-06 09:30N 25°08' E 121°45'0 0.0
2019-Sep-06 09:00N 25°08' E 121°45'0 0.0
2019-Sep-06 08:30N 25°08' E 121°45'0 0.0
2019-Sep-06 08:00N 25°08' E 121°45'0 0.4
2019-Sep-06 07:30N 25°08' E 121°45'2 3.4
2019-Sep-06 07:00N 25°10' E 121°45'5 8.7
2019-Sep-06 06:28N 25°13' E 121°49'613.3
2019-Sep-06 06:00N 25°11' E 121°55'3012.3
2019-Sep-06 03:34N 24°53' E 122°21'5 8.4
2019-Sep-06 03:01N 24°50' E 122°25'0 8.3
2019-Sep-06 03:00N 24°50' E 122°25'5 8.4
2019-Sep-06 02:26N 24°47' E 122°29'4 8.3
2019-Sep-06 01:57N 24°44' E 122°33'7 8.8
2019-Sep-06 01:11N 24°40' E 122°38'10 8.6
2019-Sep-06 00:00N 24°30' E 122°42'37 3.6 270 / 19999.610.8 29.026.328.1
2019-Sep-05 13:45N 24°46' E 122°06'2 8.1
2019-Sep-05 13:28N 24°49' E 122°06'811.1
2019-Sep-05 12:46N 24°56' E 122°06'1011.4
2019-Sep-05 11:55N 25°06' E 122°03'511.1
2019-Sep-05 11:30N 25°10' E 122°00'510.8
2019-Sep-05 11:00N 25°13' E 121°55'611.6
2019-Sep-05 10:30N 25°15' E 121°50'611.5
2019-Sep-05 09:57N 25°18' E 121°44'611.0
2019-Sep-05 09:27N 25°21' E 121°38'  

Dump ship's entire track history